Callands, Virginia
Current Conditions -  °F | °C
As of 2:53 AM on Wednesday 22 Oct 2014 (Local Time) from KDAN Reporting Station
Scattered Clouds Scattered Clouds  
Wind Chill: 52°   Ceiling: Unl
Heat Index: 52°   Visibility: 10mi
Dew Point: 42°   Wind: 8mph
Humidity: 69%   Direction: 320°NW
Pressure: 29.95"   Gusts: NA
Location:  36.82°N, 79.59°W
Report Text: KDAN 220653Z AUTO 32007KT 10SM SCT085 11/06 A2995 RMK AO2 RAB0556E13 SLP134 P0000 T01110056
Loading
Personal Weather Stations






























Interactive Weather Map
Tropical Storm Tracking
New forecast layout! Learn more

10-Day Weather Forecast

Advertisements
Track Severe Weather on mobile